aviador You're here:

PAKF Decoded Metar

FALSE PASS in AK, US
Report Time2018-01-22 02:01:00
UTC Time2018-01-22 02:08:55
Flight Rules mvfr MVFR
Wind340° at 19 Gusting to 35 kt
W.Decomp.*RWY 32: 19.0 kt HW 1.3 kt RCW
W.Rank340° ranks 15
Current wind is above 340° avg. (10.1)
Visibility6437 m
Phenomena:Light Snow
Clouds:Broken 032 Hf
Overcast 042 Hf
Expected CloudBase > 2,400 ft AGL from Temp-Dew spread
Ceiling3,200 ft
Temp-5°C (ISA -20)
Dew Point-11°C (63% RH)
AAT-15.0°C
QNH1017 hPa
Density Alt-2,549 ft
Elevation19 ft
Report Wrong Elevation
Raw Report
PAKF 220201Z AUTO 34019G35KT 4SM -SN BKN032 OVC042 M05/M11 A3002
RMK AO2 PK WND 32035/0154 SLP265 P0000 T10501111 FZRANO=

Extra information for PAKF:More info

Metar Taf Metar & Taf Last 4 Metars F.Rules Stats Wind Profile Meteogram Temp Stats Airport Information Weather charts Add Link Nearby VenuesMetar ALERT Operation Metar Decoded Social comments